sensor_id;sensor_type;location;lat;lon;timestamp;P1;durP1;ratioP1;P2;durP2;ratioP2
60935;SDS011;46804;51.786;19.520;2023-06-10T00:02:42;10.50;;;6.55;;
60935;SDS011;46804;51.786;19.520;2023-06-10T00:06:44;11.52;;;6.78;;
60935;SDS011;46804;51.786;19.520;2023-06-10T00:10:45;13.43;;;6.57;;
60935;SDS011;46804;51.786;19.520;2023-06-10T00:14:46;9.25;;;5.80;;
60935;SDS011;46804;51.786;19.520;2023-06-10T00:18:46;9.88;;;6.38;;
60935;SDS011;46804;51.786;19.520;2023-06-10T00:22:47;8.80;;;6.18;;
60935;SDS011;46804;51.786;19.520;2023-06-10T00:26:48;10.13;;;5.90;;
60935;SDS011;46804;51.786;19.520;2023-06-10T00:30:50;9.63;;;6.18;;
60935;SDS011;46804;51.786;19.520;2023-06-10T00:34:50;12.02;;;7.15;;
60935;SDS011;46804;51.786;19.520;2023-06-10T00:38:51;10.50;;;6.38;;
60935;SDS011;46804;51.786;19.520;2023-06-10T00:42:52;9.00;;;6.72;;
60935;SDS011;46804;51.786;19.520;2023-06-10T00:46:52;12.38;;;7.03;;
60935;SDS011;46804;51.786;19.520;2023-06-10T00:50:55;10.32;;;7.25;;
60935;SDS011;46804;51.786;19.520;2023-06-10T00:54:57;10.85;;;7.53;;
60935;SDS011;46804;51.786;19.520;2023-06-10T00:58:59;9.15;;;7.32;;
60935;SDS011;46804;51.786;19.520;2023-06-10T01:03:00;12.45;;;7.43;;
60935;SDS011;46804;51.786;19.520;2023-06-10T01:11:19;10.98;;;7.53;;
60935;SDS011;46804;51.786;19.520;2023-06-10T01:15:24;9.93;;;7.78;;
60935;SDS011;46804;51.786;19.520;2023-06-10T01:19:25;10.68;;;8.18;;
60935;SDS011;46804;51.786;19.520;2023-06-10T01:23:26;11.75;;;7.57;;
60935;SDS011;46804;51.786;19.520;2023-06-10T01:27:29;15.75;;;7.90;;
60935;SDS011;46804;51.786;19.520;2023-06-10T01:31:43;12.52;;;7.60;;
60935;SDS011;46804;51.786;19.520;2023-06-10T01:35:51;9.15;;;7.32;;
60935;SDS011;46804;51.786;19.520;2023-06-10T01:39:53;11.30;;;7.93;;
60935;SDS011;46804;51.786;19.520;2023-06-10T01:43:56;12.35;;;7.95;;
60935;SDS011;46804;51.786;19.520;2023-06-10T01:47:56;9.88;;;7.25;;
60935;SDS011;46804;51.786;19.520;2023-06-10T01:51:57;9.13;;;6.72;;
60935;SDS011;46804;51.786;19.520;2023-06-10T01:55:58;12.32;;;8.32;;
60935;SDS011;46804;51.786;19.520;2023-06-10T01:59:59;9.57;;;7.18;;
60935;SDS011;46804;51.786;19.520;2023-06-10T02:03:59;10.32;;;7.35;;
60935;SDS011;46804;51.786;19.520;2023-06-10T02:08:01;10.25;;;7.40;;
60935;SDS011;46804;51.786;19.520;2023-06-10T02:12:05;10.82;;;7.55;;
60935;SDS011;46804;51.786;19.520;2023-06-10T02:16:06;14.07;;;7.53;;
60935;SDS011;46804;51.786;19.520;2023-06-10T02:20:07;14.05;;;8.35;;
60935;SDS011;46804;51.786;19.520;2023-06-10T02:24:11;9.45;;;7.28;;
60935;SDS011;46804;51.786;19.520;2023-06-10T02:28:11;9.07;;;7.50;;
60935;SDS011;46804;51.786;19.520;2023-06-10T02:32:12;10.20;;;7.47;;
60935;SDS011;46804;51.786;19.520;2023-06-10T02:36:13;11.77;;;6.82;;
60935;SDS011;46804;51.786;19.520;2023-06-10T02:40:15;8.63;;;6.80;;
60935;SDS011;46804;51.786;19.520;2023-06-10T02:44:17;17.08;;;7.40;;
60935;SDS011;46804;51.786;19.520;2023-06-10T02:48:18;11.80;;;6.63;;
60935;SDS011;46804;51.786;19.520;2023-06-10T02:52:19;13.45;;;7.00;;
60935;SDS011;46804;51.786;19.520;2023-06-10T02:56:20;9.80;;;6.75;;
60935;SDS011;46804;51.786;19.520;2023-06-10T03:00:22;10.65;;;7.05;;
60935;SDS011;46804;51.786;19.520;2023-06-10T03:04:22;14.80;;;7.03;;
60935;SDS011;46804;51.786;19.520;2023-06-10T03:08:25;9.63;;;7.75;;
60935;SDS011;46804;51.786;19.520;2023-06-10T03:12:27;13.45;;;9.15;;
60935;SDS011;46804;51.786;19.520;2023-06-10T03:16:27;15.48;;;10.13;;
60935;SDS011;46804;51.786;19.520;2023-06-10T03:20:28;14.77;;;10.25;;
60935;SDS011;46804;51.786;19.520;2023-06-10T03:24:30;14.52;;;10.30;;
60935;SDS011;46804;51.786;19.520;2023-06-10T03:28:31;14.82;;;11.23;;
60935;SDS011;46804;51.786;19.520;2023-06-10T03:32:32;15.00;;;10.98;;
60935;SDS011;46804;51.786;19.520;2023-06-10T03:36:32;15.02;;;10.77;;
60935;SDS011;46804;51.786;19.520;2023-06-10T03:40:33;14.27;;;11.23;;
60935;SDS011;46804;51.786;19.520;2023-06-10T03:44:34;14.65;;;10.75;;
60935;SDS011;46804;51.786;19.520;2023-06-10T03:48:35;17.48;;;10.98;;
60935;SDS011;46804;51.786;19.520;2023-06-10T03:52:37;13.02;;;10.27;;
60935;SDS011;46804;51.786;19.520;2023-06-10T03:56:38;12.02;;;9.77;;
60935;SDS011;46804;51.786;19.520;2023-06-10T04:00:39;11.75;;;8.98;;
60935;SDS011;46804;51.786;19.520;2023-06-10T04:04:42;11.10;;;8.67;;
60935;SDS011;46804;51.786;19.520;2023-06-10T04:08:43;14.68;;;8.40;;
60935;SDS011;46804;51.786;19.520;2023-06-10T04:12:44;12.00;;;8.25;;
60935;SDS011;46804;51.786;19.520;2023-06-10T04:16:44;13.75;;;8.32;;
60935;SDS011;46804;51.786;19.520;2023-06-10T04:20:45;15.45;;;8.80;;
60935;SDS011;46804;51.786;19.520;2023-06-10T04:24:46;10.07;;;7.78;;
60935;SDS011;46804;51.786;19.520;2023-06-10T04:28:48;12.07;;;7.75;;
60935;SDS011;46804;51.786;19.520;2023-06-10T04:32:49;10.27;;;6.93;;
60935;SDS011;46804;51.786;19.520;2023-06-10T04:36:50;13.05;;;7.47;;
60935;SDS011;46804;51.786;19.520;2023-06-10T04:40:51;9.80;;;7.00;;
60935;SDS011;46804;51.786;19.520;2023-06-10T04:44:52;11.73;;;7.10;;
60935;SDS011;46804;51.786;19.520;2023-06-10T04:48:53;8.93;;;6.45;;
60935;SDS011;46804;51.786;19.520;2023-06-10T04:52:54;10.52;;;6.15;;
60935;SDS011;46804;51.786;19.520;2023-06-10T04:56:58;13.13;;;5.78;;
60935;SDS011;46804;51.786;19.520;2023-06-10T05:00:58;8.60;;;5.88;;
60935;SDS011;46804;51.786;19.520;2023-06-10T05:05:00;9.18;;;5.88;;
60935;SDS011;46804;51.786;19.520;2023-06-10T05:09:00;12.20;;;5.95;;
60935;SDS011;46804;51.786;19.520;2023-06-10T05:13:01;8.05;;;5.30;;
60935;SDS011;46804;51.786;19.520;2023-06-10T05:17:04;12.73;;;5.75;;
60935;SDS011;46804;51.786;19.520;2023-06-10T05:21:06;13.27;;;5.75;;
60935;SDS011;46804;51.786;19.520;2023-06-10T05:25:08;9.60;;;5.15;;
60935;SDS011;46804;51.786;19.520;2023-06-10T05:29:09;9.70;;;5.47;;
60935;SDS011;46804;51.786;19.520;2023-06-10T05:33:10;9.07;;;5.47;;
60935;SDS011;46804;51.786;19.520;2023-06-10T05:37:10;13.40;;;5.10;;
60935;SDS011;46804;51.786;19.520;2023-06-10T05:41:11;11.20;;;5.07;;
60935;SDS011;46804;51.786;19.520;2023-06-10T05:45:12;9.75;;;5.18;;
60935;SDS011;46804;51.786;19.520;2023-06-10T05:49:13;11.55;;;4.78;;
60935;SDS011;46804;51.786;19.520;2023-06-10T05:53:14;9.23;;;5.10;;
60935;SDS011;46804;51.786;19.520;2023-06-10T05:57:15;9.75;;;4.85;;
60935;SDS011;46804;51.786;19.520;2023-06-10T06:01:16;9.13;;;5.30;;
60935;SDS011;46804;51.786;19.520;2023-06-10T06:05:17;11.77;;;5.32;;
60935;SDS011;46804;51.786;19.520;2023-06-10T06:09:18;9.32;;;4.82;;
60935;SDS011;46804;51.786;19.520;2023-06-10T06:13:18;7.97;;;4.93;;
60935;SDS011;46804;51.786;19.520;2023-06-10T06:17:19;13.52;;;5.20;;
60935;SDS011;46804;51.786;19.520;2023-06-10T06:21:20;11.73;;;5.05;;
60935;SDS011;46804;51.786;19.520;2023-06-10T06:25:21;15.10;;;4.72;;
60935;SDS011;46804;51.786;19.520;2023-06-10T06:29:21;10.20;;;5.47;;
60935;SDS011;46804;51.786;19.520;2023-06-10T06:33:22;11.65;;;4.78;;
60935;SDS011;46804;51.786;19.520;2023-06-10T06:37:23;10.48;;;4.85;;
60935;SDS011;46804;51.786;19.520;2023-06-10T06:41:28;10.13;;;4.72;;
60935;SDS011;46804;51.786;19.520;2023-06-10T06:45:31;9.32;;;5.10;;
60935;SDS011;46804;51.786;19.520;2023-06-10T06:49:34;7.13;;;4.65;;
60935;SDS011;46804;51.786;19.520;2023-06-10T06:53:35;12.85;;;4.65;;
60935;SDS011;46804;51.786;19.520;2023-06-10T06:57:37;9.63;;;4.93;;
60935;SDS011;46804;51.786;19.520;2023-06-10T07:01:38;7.35;;;4.78;;
60935;SDS011;46804;51.786;19.520;2023-06-10T07:05:38;8.18;;;5.28;;
60935;SDS011;46804;51.786;19.520;2023-06-10T07:09:39;8.48;;;5.28;;
60935;SDS011;46804;51.786;19.520;2023-06-10T07:13:41;11.57;;;5.57;;
60935;SDS011;46804;51.786;19.520;2023-06-10T07:17:42;6.97;;;4.78;;
60935;SDS011;46804;51.786;19.520;2023-06-10T07:21:43;9.82;;;4.90;;
60935;SDS011;46804;51.786;19.520;2023-06-10T07:25:44;10.40;;;5.32;;
60935;SDS011;46804;51.786;19.520;2023-06-10T07:29:45;11.05;;;5.38;;
60935;SDS011;46804;51.786;19.520;2023-06-10T07:33:46;7.45;;;4.70;;
60935;SDS011;46804;51.786;19.520;2023-06-10T07:37:47;7.50;;;4.88;;
60935;SDS011;46804;51.786;19.520;2023-06-10T07:41:48;8.88;;;4.95;;
60935;SDS011;46804;51.786;19.520;2023-06-10T07:45:50;8.43;;;5.10;;
60935;SDS011;46804;51.786;19.520;2023-06-10T07:49:51;15.70;;;5.32;;
60935;SDS011;46804;51.786;19.520;2023-06-10T07:53:51;6.72;;;4.90;;
60935;SDS011;46804;51.786;19.520;2023-06-10T07:57:52;10.13;;;5.25;;
60935;SDS011;46804;51.786;19.520;2023-06-10T08:01:53;9.98;;;5.15;;
60935;SDS011;46804;51.786;19.520;2023-06-10T08:05:54;7.07;;;4.38;;
60935;SDS011;46804;51.786;19.520;2023-06-10T08:09:55;8.13;;;5.20;;
60935;SDS011;46804;51.786;19.520;2023-06-10T08:13:56;8.57;;;4.53;;
60935;SDS011;46804;51.786;19.520;2023-06-10T08:17:56;8.18;;;4.15;;
60935;SDS011;46804;51.786;19.520;2023-06-10T08:21:57;8.60;;;3.92;;
60935;SDS011;46804;51.786;19.520;2023-06-10T08:25:58;6.30;;;3.80;;
60935;SDS011;46804;51.786;19.520;2023-06-10T08:29:59;8.10;;;3.95;;
60935;SDS011;46804;51.786;19.520;2023-06-10T08:34:01;6.53;;;4.55;;
60935;SDS011;46804;51.786;19.520;2023-06-10T08:38:01;11.48;;;4.18;;
60935;SDS011;46804;51.786;19.520;2023-06-10T08:46:22;8.85;;;4.47;;
60935;SDS011;46804;51.786;19.520;2023-06-10T08:50:23;7.55;;;4.63;;
60935;SDS011;46804;51.786;19.520;2023-06-10T08:54:25;8.55;;;4.07;;
60935;SDS011;46804;51.786;19.520;2023-06-10T08:58:28;5.43;;;3.72;;
60935;SDS011;46804;51.786;19.520;2023-06-10T09:02:30;7.10;;;4.43;;
60935;SDS011;46804;51.786;19.520;2023-06-10T09:06:35;6.38;;;3.80;;
60935;SDS011;46804;51.786;19.520;2023-06-10T09:10:38;11.13;;;4.20;;
60935;SDS011;46804;51.786;19.520;2023-06-10T09:14:39;7.18;;;3.83;;
60935;SDS011;46804;51.786;19.520;2023-06-10T09:18:40;7.72;;;3.70;;
60935;SDS011;46804;51.786;19.520;2023-06-10T09:22:41;6.07;;;3.42;;
60935;SDS011;46804;51.786;19.520;2023-06-10T09:26:43;5.18;;;3.45;;
60935;SDS011;46804;51.786;19.520;2023-06-10T09:30:44;7.72;;;3.80;;
60935;SDS011;46804;51.786;19.520;2023-06-10T09:34:45;8.32;;;3.90;;
60935;SDS011;46804;51.786;19.520;2023-06-10T09:38:50;7.07;;;3.50;;
60935;SDS011;46804;51.786;19.520;2023-06-10T09:42:59;6.15;;;3.83;;
60935;SDS011;46804;51.786;19.520;2023-06-10T09:47:01;8.00;;;3.58;;
60935;SDS011;46804;51.786;19.520;2023-06-10T09:51:02;8.27;;;3.85;;
60935;SDS011;46804;51.786;19.520;2023-06-10T09:55:09;7.60;;;3.58;;
60935;SDS011;46804;51.786;19.520;2023-06-10T09:59:11;5.47;;;3.50;;
60935;SDS011;46804;51.786;19.520;2023-06-10T10:03:12;5.65;;;3.55;;
60935;SDS011;46804;51.786;19.520;2023-06-10T10:07:22;5.82;;;3.40;;
60935;SDS011;46804;51.786;19.520;2023-06-10T10:11:23;6.68;;;3.80;;
60935;SDS011;46804;51.786;19.520;2023-06-10T10:15:28;11.00;;;3.65;;
60935;SDS011;46804;51.786;19.520;2023-06-10T10:19:32;9.05;;;3.45;;
60935;SDS011;46804;51.786;19.520;2023-06-10T10:23:48;5.95;;;3.65;;
60935;SDS011;46804;51.786;19.520;2023-06-10T10:27:55;5.38;;;3.15;;
60935;SDS011;46804;51.786;19.520;2023-06-10T10:31:59;5.57;;;3.20;;
60935;SDS011;46804;51.786;19.520;2023-06-10T10:36:01;6.00;;;3.15;;
60935;SDS011;46804;51.786;19.520;2023-06-10T10:40:01;8.20;;;3.10;;
60935;SDS011;46804;51.786;19.520;2023-06-10T10:44:04;6.45;;;3.05;;
60935;SDS011;46804;51.786;19.520;2023-06-10T10:48:10;4.43;;;2.80;;
60935;SDS011;46804;51.786;19.520;2023-06-10T10:52:12;7.25;;;3.20;;
60935;SDS011;46804;51.786;19.520;2023-06-10T10:56:14;7.35;;;3.03;;
60935;SDS011;46804;51.786;19.520;2023-06-10T11:00:24;6.13;;;3.38;;
60935;SDS011;46804;51.786;19.520;2023-06-10T11:04:27;7.25;;;3.42;;
60935;SDS011;46804;51.786;19.520;2023-06-10T11:16:42;7.28;;;2.97;;
60935;SDS011;46804;51.786;19.520;2023-06-10T11:20:44;5.00;;;2.88;;
60935;SDS011;46804;51.786;19.520;2023-06-10T11:24:54;7.45;;;3.05;;
60935;SDS011;46804;51.786;19.520;2023-06-10T11:32:56;6.67;;;3.60;;
60935;SDS011;46804;51.786;19.520;2023-06-10T11:37:04;8.38;;;3.17;;
60935;SDS011;46804;51.786;19.520;2023-06-10T11:41:05;5.17;;;3.00;;
60935;SDS011;46804;51.786;19.520;2023-06-10T11:45:06;8.05;;;3.10;;
60935;SDS011;46804;51.786;19.520;2023-06-10T11:49:08;8.82;;;3.10;;
60935;SDS011;46804;51.786;19.520;2023-06-10T11:53:09;6.47;;;3.22;;
60935;SDS011;46804;51.786;19.520;2023-06-10T11:57:10;8.23;;;3.67;;
60935;SDS011;46804;51.786;19.520;2023-06-10T12:01:11;7.28;;;3.20;;
60935;SDS011;46804;51.786;19.520;2023-06-10T12:05:19;8.27;;;3.70;;
60935;SDS011;46804;51.786;19.520;2023-06-10T12:09:21;6.82;;;3.72;;
60935;SDS011;46804;51.786;19.520;2023-06-10T12:13:26;5.28;;;3.53;;
60935;SDS011;46804;51.786;19.520;2023-06-10T12:21:31;5.82;;;3.33;;
60935;SDS011;46804;51.786;19.520;2023-06-10T12:25:33;5.88;;;3.28;;
60935;SDS011;46804;51.786;19.520;2023-06-10T12:29:34;5.88;;;3.45;;
60935;SDS011;46804;51.786;19.520;2023-06-10T12:33:35;5.10;;;3.38;;
60935;SDS011;46804;51.786;19.520;2023-06-10T12:37:35;5.97;;;3.30;;
60935;SDS011;46804;51.786;19.520;2023-06-10T12:41:39;10.82;;;3.50;;
60935;SDS011;46804;51.786;19.520;2023-06-10T12:45:40;4.90;;;3.13;;
60935;SDS011;46804;51.786;19.520;2023-06-10T12:49:45;5.22;;;3.25;;
60935;SDS011;46804;51.786;19.520;2023-06-10T12:53:46;6.43;;;3.55;;
60935;SDS011;46804;51.786;19.520;2023-06-10T12:57:50;6.90;;;3.25;;
60935;SDS011;46804;51.786;19.520;2023-06-10T13:01:51;5.43;;;2.83;;
60935;SDS011;46804;51.786;19.520;2023-06-10T13:05:52;9.77;;;3.50;;
60935;SDS011;46804;51.786;19.520;2023-06-10T13:09:53;9.48;;;3.33;;
60935;SDS011;46804;51.786;19.520;2023-06-10T13:13:54;10.00;;;3.47;;
60935;SDS011;46804;51.786;19.520;2023-06-10T13:17:55;10.30;;;3.28;;
60935;SDS011;46804;51.786;19.520;2023-06-10T13:21:58;5.55;;;3.17;;
60935;SDS011;46804;51.786;19.520;2023-06-10T13:25:59;7.13;;;3.22;;
60935;SDS011;46804;51.786;19.520;2023-06-10T13:30:00;5.72;;;3.03;;
60935;SDS011;46804;51.786;19.520;2023-06-10T13:34:01;6.15;;;3.67;;
60935;SDS011;46804;51.786;19.520;2023-06-10T13:38:02;7.47;;;3.30;;
60935;SDS011;46804;51.786;19.520;2023-06-10T13:42:03;4.72;;;3.20;;
60935;SDS011;46804;51.786;19.520;2023-06-10T13:46:04;7.78;;;3.38;;
60935;SDS011;46804;51.786;19.520;2023-06-10T13:50:05;9.15;;;3.63;;
60935;SDS011;46804;51.786;19.520;2023-06-10T13:54:07;4.82;;;3.10;;
60935;SDS011;46804;51.786;19.520;2023-06-10T13:58:07;6.65;;;3.20;;
60935;SDS011;46804;51.786;19.520;2023-06-10T14:02:08;6.57;;;2.97;;
60935;SDS011;46804;51.786;19.520;2023-06-10T14:06:09;5.85;;;3.25;;
60935;SDS011;46804;51.786;19.520;2023-06-10T14:10:13;6.95;;;3.05;;
60935;SDS011;46804;51.786;19.520;2023-06-10T14:14:14;8.05;;;3.28;;
60935;SDS011;46804;51.786;19.520;2023-06-10T14:18:15;6.43;;;3.40;;
60935;SDS011;46804;51.786;19.520;2023-06-10T14:22:16;8.80;;;3.28;;
60935;SDS011;46804;51.786;19.520;2023-06-10T14:26:17;6.25;;;3.08;;
60935;SDS011;46804;51.786;19.520;2023-06-10T14:30:17;6.47;;;3.30;;
60935;SDS011;46804;51.786;19.520;2023-06-10T14:34:18;4.80;;;3.38;;
60935;SDS011;46804;51.786;19.520;2023-06-10T14:38:19;6.90;;;3.28;;
60935;SDS011;46804;51.786;19.520;2023-06-10T14:42:20;7.07;;;3.40;;
60935;SDS011;46804;51.786;19.520;2023-06-10T14:46:20;5.25;;;2.97;;
60935;SDS011;46804;51.786;19.520;2023-06-10T14:50:21;4.90;;;3.15;;
60935;SDS011;46804;51.786;19.520;2023-06-10T14:54:22;5.88;;;3.20;;
60935;SDS011;46804;51.786;19.520;2023-06-10T14:58:23;6.00;;;3.45;;
60935;SDS011;46804;51.786;19.520;2023-06-10T15:02:24;5.72;;;3.40;;
60935;SDS011;46804;51.786;19.520;2023-06-10T15:06:25;6.97;;;3.30;;
60935;SDS011;46804;51.786;19.520;2023-06-10T15:10:25;5.65;;;3.00;;
60935;SDS011;46804;51.786;19.520;2023-06-10T15:14:26;5.45;;;3.20;;
60935;SDS011;46804;51.786;19.520;2023-06-10T15:18:27;8.88;;;3.10;;
60935;SDS011;46804;51.786;19.520;2023-06-10T15:22:27;11.85;;;3.58;;
60935;SDS011;46804;51.786;19.520;2023-06-10T15:26:28;5.20;;;3.33;;
60935;SDS011;46804;51.786;19.520;2023-06-10T15:30:29;8.70;;;3.80;;
60935;SDS011;46804;51.786;19.520;2023-06-10T15:34:30;4.57;;;3.08;;
60935;SDS011;46804;51.786;19.520;2023-06-10T15:38:31;6.65;;;3.20;;
60935;SDS011;46804;51.786;19.520;2023-06-10T15:42:31;7.15;;;2.83;;
60935;SDS011;46804;51.786;19.520;2023-06-10T15:46:32;8.90;;;3.33;;
60935;SDS011;46804;51.786;19.520;2023-06-10T15:50:34;8.52;;;3.65;;
60935;SDS011;46804;51.786;19.520;2023-06-10T15:54:35;5.38;;;3.10;;
60935;SDS011;46804;51.786;19.520;2023-06-10T15:58:36;7.97;;;3.70;;
60935;SDS011;46804;51.786;19.520;2023-06-10T16:02:37;7.80;;;3.75;;
60935;SDS011;46804;51.786;19.520;2023-06-10T16:06:37;5.45;;;3.38;;
60935;SDS011;46804;51.786;19.520;2023-06-10T16:10:38;9.30;;;3.33;;
60935;SDS011;46804;51.786;19.520;2023-06-10T16:14:39;8.52;;;3.50;;
60935;SDS011;46804;51.786;19.520;2023-06-10T16:18:40;5.65;;;3.28;;
60935;SDS011;46804;51.786;19.520;2023-06-10T16:22:41;6.28;;;3.53;;
60935;SDS011;46804;51.786;19.520;2023-06-10T16:26:42;6.50;;;4.13;;
60935;SDS011;46804;51.786;19.520;2023-06-10T16:30:43;7.90;;;3.80;;
60935;SDS011;46804;51.786;19.520;2023-06-10T16:34:43;8.77;;;4.13;;
60935;SDS011;46804;51.786;19.520;2023-06-10T16:38:44;7.88;;;3.95;;
60935;SDS011;46804;51.786;19.520;2023-06-10T16:42:46;7.55;;;4.07;;
60935;SDS011;46804;51.786;19.520;2023-06-10T16:46:47;7.53;;;4.13;;
60935;SDS011;46804;51.786;19.520;2023-06-10T16:50:48;7.70;;;3.97;;
60935;SDS011;46804;51.786;19.520;2023-06-10T16:54:48;5.53;;;3.63;;
60935;SDS011;46804;51.786;19.520;2023-06-10T16:58:49;10.00;;;4.30;;
60935;SDS011;46804;51.786;19.520;2023-06-10T17:02:50;5.93;;;3.67;;
60935;SDS011;46804;51.786;19.520;2023-06-10T17:06:51;7.65;;;4.18;;
60935;SDS011;46804;51.786;19.520;2023-06-10T17:10:52;12.30;;;4.00;;
60935;SDS011;46804;51.786;19.520;2023-06-10T17:14:52;9.15;;;3.78;;
60935;SDS011;46804;51.786;19.520;2023-06-10T17:18:53;8.02;;;4.53;;
60935;SDS011;46804;51.786;19.520;2023-06-10T17:22:53;10.30;;;4.20;;
60935;SDS011;46804;51.786;19.520;2023-06-10T17:26:54;9.07;;;4.13;;
60935;SDS011;46804;51.786;19.520;2023-06-10T17:30:55;10.45;;;3.88;;
60935;SDS011;46804;51.786;19.520;2023-06-10T17:34:56;7.32;;;3.55;;
60935;SDS011;46804;51.786;19.520;2023-06-10T17:38:57;6.60;;;4.15;;
60935;SDS011;46804;51.786;19.520;2023-06-10T17:42:57;6.07;;;4.28;;
60935;SDS011;46804;51.786;19.520;2023-06-10T17:46:58;8.23;;;4.65;;
60935;SDS011;46804;51.786;19.520;2023-06-10T17:50:59;7.47;;;4.88;;
60935;SDS011;46804;51.786;19.520;2023-06-10T17:55:00;7.20;;;5.20;;
60935;SDS011;46804;51.786;19.520;2023-06-10T17:59:00;12.20;;;6.15;;
60935;SDS011;46804;51.786;19.520;2023-06-10T18:03:01;6.32;;;5.00;;
60935;SDS011;46804;51.786;19.520;2023-06-10T18:07:03;9.40;;;5.55;;
60935;SDS011;46804;51.786;19.520;2023-06-10T18:11:04;9.85;;;5.13;;
60935;SDS011;46804;51.786;19.520;2023-06-10T18:15:05;10.23;;;5.65;;
60935;SDS011;46804;51.786;19.520;2023-06-10T18:19:06;7.25;;;5.55;;
60935;SDS011;46804;51.786;19.520;2023-06-10T18:23:07;7.68;;;5.50;;
60935;SDS011;46804;51.786;19.520;2023-06-10T18:27:08;9.10;;;5.43;;
60935;SDS011;46804;51.786;19.520;2023-06-10T18:31:09;12.15;;;5.47;;
60935;SDS011;46804;51.786;19.520;2023-06-10T18:35:10;10.70;;;5.75;;
60935;SDS011;46804;51.786;19.520;2023-06-10T18:39:11;12.00;;;5.80;;
60935;SDS011;46804;51.786;19.520;2023-06-10T18:43:11;8.93;;;5.70;;
60935;SDS011;46804;51.786;19.520;2023-06-10T18:47:13;7.72;;;5.40;;
60935;SDS011;46804;51.786;19.520;2023-06-10T18:51:13;8.02;;;6.05;;
60935;SDS011;46804;51.786;19.520;2023-06-10T18:55:14;10.13;;;6.18;;
60935;SDS011;46804;51.786;19.520;2023-06-10T18:59:16;8.68;;;5.80;;
60935;SDS011;46804;51.786;19.520;2023-06-10T19:03:17;8.75;;;5.60;;
60935;SDS011;46804;51.786;19.520;2023-06-10T19:07:18;8.15;;;5.30;;
60935;SDS011;46804;51.786;19.520;2023-06-10T19:11:19;7.93;;;5.35;;
60935;SDS011;46804;51.786;19.520;2023-06-10T19:15:22;11.35;;;5.45;;
60935;SDS011;46804;51.786;19.520;2023-06-10T19:19:23;12.73;;;6.03;;
60935;SDS011;46804;51.786;19.520;2023-06-10T19:23:23;9.43;;;5.70;;
60935;SDS011;46804;51.786;19.520;2023-06-10T19:27:24;7.53;;;5.47;;
60935;SDS011;46804;51.786;19.520;2023-06-10T19:31:25;10.88;;;6.55;;
60935;SDS011;46804;51.786;19.520;2023-06-10T19:35:26;11.57;;;5.97;;
60935;SDS011;46804;51.786;19.520;2023-06-10T19:39:26;9.73;;;6.53;;
60935;SDS011;46804;51.786;19.520;2023-06-10T19:43:27;9.50;;;6.35;;
60935;SDS011;46804;51.786;19.520;2023-06-10T19:47:29;9.15;;;6.80;;
60935;SDS011;46804;51.786;19.520;2023-06-10T19:51:29;13.50;;;6.15;;
60935;SDS011;46804;51.786;19.520;2023-06-10T19:55:31;10.38;;;6.05;;
60935;SDS011;46804;51.786;19.520;2023-06-10T19:59:31;15.27;;;6.57;;
60935;SDS011;46804;51.786;19.520;2023-06-10T20:03:33;10.10;;;6.45;;
60935;SDS011;46804;51.786;19.520;2023-06-10T20:07:34;9.40;;;6.70;;
60935;SDS011;46804;51.786;19.520;2023-06-10T20:11:41;11.15;;;6.25;;
60935;SDS011;46804;51.786;19.520;2023-06-10T20:15:42;8.70;;;6.45;;
60935;SDS011;46804;51.786;19.520;2023-06-10T20:19:43;10.68;;;6.95;;
60935;SDS011;46804;51.786;19.520;2023-06-10T20:23:48;12.50;;;6.88;;
60935;SDS011;46804;51.786;19.520;2023-06-10T20:27:50;7.78;;;6.07;;
60935;SDS011;46804;51.786;19.520;2023-06-10T20:31:52;14.68;;;5.05;;
60935;SDS011;46804;51.786;19.520;2023-06-10T20:35:55;9.15;;;6.00;;
60935;SDS011;46804;51.786;19.520;2023-06-10T20:39:59;10.20;;;6.05;;
60935;SDS011;46804;51.786;19.520;2023-06-10T20:44:00;10.75;;;6.35;;
60935;SDS011;46804;51.786;19.520;2023-06-10T20:48:01;9.30;;;6.60;;
60935;SDS011;46804;51.786;19.520;2023-06-10T20:52:02;8.57;;;6.10;;
60935;SDS011;46804;51.786;19.520;2023-06-10T20:56:03;9.02;;;6.18;;
60935;SDS011;46804;51.786;19.520;2023-06-10T21:00:05;10.23;;;5.93;;
60935;SDS011;46804;51.786;19.520;2023-06-10T21:04:08;12.68;;;6.30;;
60935;SDS011;46804;51.786;19.520;2023-06-10T21:08:09;8.70;;;6.65;;
60935;SDS011;46804;51.786;19.520;2023-06-10T21:12:09;10.25;;;6.53;;
60935;SDS011;46804;51.786;19.520;2023-06-10T21:16:10;9.00;;;6.80;;
60935;SDS011;46804;51.786;19.520;2023-06-10T21:20:11;10.43;;;7.22;;
60935;SDS011;46804;51.786;19.520;2023-06-10T21:24:13;11.73;;;6.95;;
60935;SDS011;46804;51.786;19.520;2023-06-10T21:28:13;11.60;;;7.82;;
60935;SDS011;46804;51.786;19.520;2023-06-10T21:32:15;9.20;;;7.40;;
60935;SDS011;46804;51.786;19.520;2023-06-10T21:36:16;9.20;;;7.53;;
60935;SDS011;46804;51.786;19.520;2023-06-10T21:40:17;13.43;;;7.47;;
60935;SDS011;46804;51.786;19.520;2023-06-10T21:44:18;9.65;;;7.20;;
60935;SDS011;46804;51.786;19.520;2023-06-10T21:48:19;14.73;;;7.68;;
60935;SDS011;46804;51.786;19.520;2023-06-10T21:52:20;12.45;;;7.45;;
60935;SDS011;46804;51.786;19.520;2023-06-10T21:56:21;12.30;;;7.30;;
60935;SDS011;46804;51.786;19.520;2023-06-10T22:00:21;12.77;;;6.68;;
60935;SDS011;46804;51.786;19.520;2023-06-10T22:04:22;12.15;;;7.40;;
60935;SDS011;46804;51.786;19.520;2023-06-10T22:08:23;9.68;;;6.95;;
60935;SDS011;46804;51.786;19.520;2023-06-10T22:12:25;9.75;;;7.10;;
60935;SDS011;46804;51.786;19.520;2023-06-10T22:16:26;8.75;;;6.35;;
60935;SDS011;46804;51.786;19.520;2023-06-10T22:20:27;11.32;;;7.35;;
60935;SDS011;46804;51.786;19.520;2023-06-10T22:24:28;9.57;;;6.68;;
60935;SDS011;46804;51.786;19.520;2023-06-10T22:28:28;8.52;;;6.53;;
60935;SDS011;46804;51.786;19.520;2023-06-10T22:32:29;7.97;;;6.63;;
60935;SDS011;46804;51.786;19.520;2023-06-10T22:36:30;8.10;;;6.50;;
60935;SDS011;46804;51.786;19.520;2023-06-10T22:40:31;9.43;;;6.88;;
60935;SDS011;46804;51.786;19.520;2023-06-10T22:44:32;10.10;;;7.07;;
60935;SDS011;46804;51.786;19.520;2023-06-10T22:48:32;9.73;;;6.90;;
60935;SDS011;46804;51.786;19.520;2023-06-10T22:52:33;10.25;;;6.78;;
60935;SDS011;46804;51.786;19.520;2023-06-10T22:56:34;12.55;;;8.13;;
60935;SDS011;46804;51.786;19.520;2023-06-10T23:00:35;11.15;;;8.10;;
60935;SDS011;46804;51.786;19.520;2023-06-10T23:04:36;13.50;;;7.78;;
60935;SDS011;46804;51.786;19.520;2023-06-10T23:08:37;9.35;;;7.63;;
60935;SDS011;46804;51.786;19.520;2023-06-10T23:12:38;15.85;;;7.88;;
60935;SDS011;46804;51.786;19.520;2023-06-10T23:16:38;9.88;;;7.18;;
60935;SDS011;46804;51.786;19.520;2023-06-10T23:20:45;12.18;;;7.97;;
60935;SDS011;46804;51.786;19.520;2023-06-10T23:24:47;11.88;;;7.57;;
60935;SDS011;46804;51.786;19.520;2023-06-10T23:28:48;10.32;;;7.47;;
60935;SDS011;46804;51.786;19.520;2023-06-10T23:32:48;9.65;;;8.20;;
60935;SDS011;46804;51.786;19.520;2023-06-10T23:36:49;13.48;;;8.40;;
60935;SDS011;46804;51.786;19.520;2023-06-10T23:40:52;10.63;;;8.18;;
60935;SDS011;46804;51.786;19.520;2023-06-10T23:44:53;10.30;;;8.43;;
60935;SDS011;46804;51.786;19.520;2023-06-10T23:48:54;13.55;;;9.02;;
60935;SDS011;46804;51.786;19.520;2023-06-10T23:52:55;11.48;;;8.25;;
60935;SDS011;46804;51.786;19.520;2023-06-10T23:56:56;12.75;;;8.98;;
